Braeside, Canada
Current Conditions -  °F | °C
As of 6:00 AM on Monday 20 Oct 2014 (Local Time) from CYOW Reporting Station
Broken Clouds Broken Clouds  
Wind Chill: 30°   Ceiling: 15000
Heat Index: 30°   Visibility: 15mi
Dew Point: 28°   Wind: 3mph
Humidity: 93%   Direction: 180°S
Pressure: 29.97"   Gusts: NA
Location:  45.47°N, 76.4°W
Report Text: CYOW 201000Z 18003KT 15SM SCT100 BKN150 M01/M02 A2997 RMK AC4AC1 FROIN SLP153
Loading
Personal Weather Stations






























Interactive Weather Map
Tropical Storm Tracking
New forecast layout! Learn more

10-Day Weather Forecast

Advertisements
Track Severe Weather on mobile